DXXX

Lomé-Tokoin Airport

Airport
ICAO code
DXXX
IATA Code
LFW
Summary
ICAO Region
AFI
ICAO Territory
Location

Lomé,

Serving
Lomé
Elevation
72 ft
Coordinates
6° 9' 57" N , 1° 15' 15" E
Metar
Observation
DXXX 152100Z 20007KT 7000 BKN010 23/22 Q1013 NOSIG
Station
Lome
Date/Time
2022-08-15 21:00:00
Wind direction
200°
Wind speed
07 kts
Lowest cloud amount
broken clouds
Temperature
23°C
Dew point
22°C
Humidity
94%
QNH
1013 hPa
Weather condition
n/a

Description

Lomé-Tokoin Airport, also known as Gnassingbé Eyadéma International Airport, is an airport in Lomé, the capital of Togo.

Runways

Designator Length Width Surface Rops
4/22 3001 45 ASP Yes/Yes

Airport map

Aerial View

SKYbrary Partners:

Safety knowledge contributed by: